createdAt,value
2022-12-28T00:00:38.246Z,1.47
2022-12-28T00:03:25.431Z,1.63
2022-12-28T00:06:12.873Z,1.63
2022-12-28T00:09:01.963Z,1.20
2022-12-28T00:11:49.028Z,1.80
2022-12-28T00:14:36.718Z,1.50
2022-12-28T00:17:23.892Z,2.20
2022-12-28T00:20:12.791Z,1.10
2022-12-28T00:23:00.059Z,1.83
2022-12-28T00:25:49.053Z,1.90
2022-12-28T00:28:36.635Z,1.73
2022-12-28T00:31:24.185Z,1.63
2022-12-28T00:34:11.387Z,1.53
2022-12-28T00:37:08.571Z,1.30
2022-12-28T00:40:00.371Z,1.40
2022-12-28T00:42:49.119Z,1.20
2022-12-28T00:45:36.267Z,1.10
2022-12-28T00:48:23.478Z,1.57
2022-12-28T00:51:13.996Z,1.90
2022-12-28T00:54:01.337Z,1.30
2022-12-28T00:56:48.013Z,0.97
2022-12-28T00:59:37.231Z,1.80
2022-12-28T01:02:24.579Z,1.70
2022-12-28T01:05:11.693Z,0.63
2022-12-28T01:07:58.727Z,1.10
2022-12-28T01:10:46.346Z,1.13
2022-12-28T01:13:33.730Z,1.20
2022-12-28T01:16:24.110Z,0.83
2022-12-28T01:19:16.285Z,1.00
2022-12-28T01:22:03.379Z,1.70
2022-12-28T01:24:50.896Z,0.60
2022-12-28T01:27:37.740Z,1.10
2022-12-28T01:30:25.291Z,1.40
2022-12-28T01:33:13.981Z,1.60
2022-12-28T01:36:06.589Z,1.80
2022-12-28T01:38:55.148Z,1.17
2022-12-28T01:41:43.665Z,1.30
2022-12-28T01:44:44.648Z,1.40
2022-12-28T01:47:36.355Z,1.60
2022-12-28T01:50:29.299Z,1.30
2022-12-28T01:53:16.361Z,1.77
2022-12-28T01:56:03.507Z,0.73
2022-12-28T01:58:51.294Z,0.53
2022-12-28T02:01:38.949Z,0.50
2022-12-28T02:04:26.867Z,0.90
2022-12-28T02:07:18.153Z,0.60
2022-12-28T02:10:43.619Z,0.80
2022-12-28T02:13:15.552Z,0.70
2022-12-28T02:16:02.530Z,0.87
2022-12-28T02:18:49.777Z,1.43
2022-12-28T02:21:52.425Z,0.87
2022-12-28T02:25:12.035Z,0.60
2022-12-28T02:28:09.909Z,0.60
2022-12-28T02:31:05.430Z,0.73
2022-12-28T02:33:58.317Z,0.63
2022-12-28T02:36:56.683Z,0.90
2022-12-28T02:39:52.973Z,0.40
2022-12-28T02:42:41.883Z,0.60
2022-12-28T02:45:55.283Z,0.50
2022-12-28T02:49:03.055Z,0.87
2022-12-28T02:52:04.106Z,0.50
2022-12-28T02:55:36.728Z,0.50
2022-12-28T02:58:56.313Z,0.83
2022-12-28T03:02:13.673Z,0.30
2022-12-28T03:05:14.443Z,0.50
2022-12-28T03:08:20.074Z,0.70
2022-12-28T03:11:10.782Z,0.67
2022-12-28T03:14:06.881Z,0.80
2022-12-28T03:17:16.674Z,0.70
2022-12-28T03:20:32.130Z,0.80
2022-12-28T03:23:40.911Z,0.53
2022-12-28T03:26:47.852Z,0.50
2022-12-28T03:29:57.259Z,0.43
2022-12-28T03:32:44.994Z,0.57
2022-12-28T03:35:41.669Z,0.80
2022-12-28T03:38:40.276Z,0.40
2022-12-28T03:41:32.677Z,0.50
2022-12-28T03:44:24.464Z,0.50
2022-12-28T03:47:14.888Z,0.60
2022-12-28T03:50:01.676Z,0.60
2022-12-28T03:52:50.334Z,0.60
2022-12-28T03:55:38.405Z,0.63
2022-12-28T03:58:25.516Z,0.30
2022-12-28T04:01:12.771Z,0.60
2022-12-28T04:04:00.004Z,0.47
2022-12-28T04:06:47.278Z,0.80
2022-12-28T04:09:36.172Z,0.50
2022-12-28T04:12:23.066Z,0.60
2022-12-28T04:15:10.695Z,0.90
2022-12-28T04:17:57.554Z,0.60
2022-12-28T04:20:45.334Z,0.57
2022-12-28T04:23:33.703Z,0.40
2022-12-28T04:26:22.345Z,0.70
2022-12-28T04:29:09.275Z,0.47
2022-12-28T04:31:56.258Z,0.67
2022-12-28T04:34:48.172Z,0.73
2022-12-28T04:37:38.369Z,0.63
2022-12-28T04:40:25.788Z,0.50
2022-12-28T04:43:14.530Z,0.50
2022-12-28T04:46:03.347Z,0.67
2022-12-28T04:48:50.785Z,0.80
2022-12-28T04:51:37.832Z,0.90
2022-12-28T04:54:24.639Z,0.70
2022-12-28T04:57:11.423Z,1.07
2022-12-28T05:00:00.241Z,0.70
2022-12-28T05:02:47.384Z,0.80
2022-12-28T05:05:35.025Z,1.00
2022-12-28T05:08:21.977Z,0.77
2022-12-28T05:11:12.599Z,0.53
2022-12-28T05:14:00.188Z,0.77
2022-12-28T05:16:52.190Z,0.83
2022-12-28T05:19:39.424Z,0.70
2022-12-28T05:22:26.985Z,0.53
2022-12-28T05:25:14.041Z,0.80
2022-12-28T05:28:00.933Z,0.50
2022-12-28T05:30:47.837Z,0.60
2022-12-28T05:33:37.194Z,0.60
2022-12-28T05:36:25.573Z,0.50
2022-12-28T05:39:12.744Z,0.63
2022-12-28T05:42:02.707Z,0.57
2022-12-28T05:44:49.510Z,0.83
2022-12-28T05:47:36.488Z,0.50
2022-12-28T05:50:24.958Z,0.70
2022-12-28T05:53:12.199Z,0.67
2022-12-28T05:56:05.000Z,0.50
2022-12-28T05:58:55.531Z,0.53
2022-12-28T06:01:45.211Z,0.70
2022-12-28T06:04:32.547Z,1.03
2022-12-28T06:07:21.047Z,0.80
2022-12-28T06:10:09.306Z,0.70
2022-12-28T06:12:56.325Z,0.53
2022-12-28T06:15:43.491Z,0.90
2022-12-28T06:18:30.768Z,0.67
2022-12-28T06:21:20.763Z,0.50
2022-12-28T06:24:10.616Z,0.30
2022-12-28T06:26:57.610Z,0.40
2022-12-28T06:29:44.457Z,0.60
2022-12-28T06:32:31.384Z,0.60
2022-12-28T06:35:20.054Z,0.80
2022-12-28T06:38:07.127Z,0.83
2022-12-28T06:41:12.690Z,0.60
2022-12-28T06:44:01.212Z,0.83
2022-12-28T06:46:48.298Z,0.50
2022-12-28T06:49:35.271Z,0.50
2022-12-28T06:52:22.525Z,0.40
2022-12-28T06:55:10.217Z,0.60
2022-12-28T06:57:58.585Z,0.40
2022-12-28T07:00:45.717Z,0.60
2022-12-28T07:03:33.004Z,0.70
2022-12-28T07:06:22.158Z,0.47
2022-12-28T07:09:11.491Z,0.47
2022-12-28T07:11:58.866Z,0.50
2022-12-28T07:14:47.705Z,0.70
2022-12-28T07:17:34.760Z,0.50
2022-12-28T07:20:21.984Z,0.80
2022-12-28T07:23:09.040Z,0.60
2022-12-28T07:25:56.747Z,0.77
2022-12-28T07:28:46.300Z,0.43
2022-12-28T07:31:44.216Z,0.50
2022-12-28T07:34:33.324Z,0.83
2022-12-28T07:37:20.644Z,0.93
2022-12-28T07:40:09.468Z,0.70
2022-12-28T07:42:56.582Z,0.57
2022-12-28T07:45:43.772Z,0.80
2022-12-28T07:48:33.723Z,0.63
2022-12-28T07:51:23.876Z,0.60
2022-12-28T07:54:10.994Z,0.53
2022-12-28T07:56:58.030Z,0.60
2022-12-28T07:59:45.304Z,0.53
2022-12-28T08:02:32.216Z,0.40
2022-12-28T08:05:21.048Z,0.50
2022-12-28T08:08:08.149Z,0.50
2022-12-28T08:10:55.089Z,0.73
2022-12-28T08:13:44.412Z,0.60
2022-12-28T08:16:33.903Z,0.60
2022-12-28T08:19:21.081Z,0.43
2022-12-28T08:22:09.565Z,0.60
2022-12-28T08:24:57.874Z,0.60
2022-12-28T08:27:45.029Z,0.37
2022-12-28T08:30:32.637Z,0.60
2022-12-28T08:33:19.738Z,0.53
2022-12-28T08:36:10.344Z,0.70
2022-12-28T08:38:59.197Z,0.40
2022-12-28T08:41:46.725Z,0.40
2022-12-28T08:44:33.814Z,0.57
2022-12-28T08:47:21.150Z,0.70
2022-12-28T08:50:12.053Z,0.43
2022-12-28T08:52:59.887Z,0.43
2022-12-28T08:55:48.097Z,0.60
2022-12-28T08:58:35.657Z,0.50
2022-12-28T09:01:24.877Z,0.30
2022-12-28T09:04:15.194Z,1.10
2022-12-28T09:07:02.219Z,0.50
2022-12-28T09:09:49.783Z,0.70
2022-12-28T09:12:38.552Z,0.90
2022-12-28T09:15:25.805Z,0.53
2022-12-28T09:18:15.311Z,0.63
2022-12-28T09:21:06.940Z,0.73
2022-12-28T09:23:54.500Z,0.70
2022-12-28T09:26:41.803Z,0.50
2022-12-28T09:29:30.241Z,0.30
2022-12-28T09:32:17.496Z,0.50
2022-12-28T09:35:05.037Z,0.53
2022-12-28T09:37:52.082Z,0.67
2022-12-28T09:40:40.243Z,0.67
2022-12-28T09:43:29.794Z,0.80
2022-12-28T09:46:20.791Z,0.50
2022-12-28T09:49:15.270Z,0.60
2022-12-28T09:52:12.028Z,0.50
2022-12-28T09:55:08.421Z,0.60
2022-12-28T09:57:57.944Z,0.83
2022-12-28T10:00:47.857Z,0.37
2022-12-28T10:03:38.622Z,0.40
2022-12-28T10:06:29.108Z,0.43
2022-12-28T10:09:26.156Z,0.70
2022-12-28T10:12:17.652Z,0.50
2022-12-28T10:15:08.144Z,0.50
2022-12-28T10:17:55.543Z,0.30
2022-12-28T10:20:45.475Z,0.50
2022-12-28T10:23:50.162Z,0.60
2022-12-28T10:26:47.316Z,0.50
2022-12-28T10:29:35.624Z,0.33
2022-12-28T10:32:23.255Z,0.50
2022-12-28T10:35:24.130Z,0.30
2022-12-28T10:38:23.120Z,0.77
2022-12-28T10:41:13.245Z,0.30
2022-12-28T10:44:37.561Z,0.40
2022-12-28T10:47:17.256Z,0.30
2022-12-28T10:53:24.456Z,0.60
2022-12-28T10:56:23.503Z,0.60
2022-12-28T10:59:25.389Z,0.37
2022-12-28T11:02:27.366Z,0.20
2022-12-28T11:05:21.818Z,0.40
2022-12-28T11:08:08.916Z,0.37
2022-12-28T11:10:59.568Z,0.30
2022-12-28T11:13:48.501Z,0.50
2022-12-28T11:16:38.878Z,0.60
2022-12-28T11:19:27.050Z,0.40
2022-12-28T11:22:16.647Z,0.80
2022-12-28T11:25:04.254Z,0.50
2022-12-28T11:27:53.118Z,0.60
2022-12-28T11:30:40.430Z,0.40
2022-12-28T11:33:33.557Z,1.40
2022-12-28T11:36:23.520Z,0.70
2022-12-28T11:39:33.734Z,1.87
2022-12-28T11:42:59.602Z,0.47
2022-12-28T11:45:55.039Z,0.73
2022-12-28T11:48:58.124Z,0.40
2022-12-28T11:51:44.887Z,0.67
2022-12-28T11:54:40.353Z,0.50
2022-12-28T11:57:52.914Z,0.50
2022-12-28T12:00:52.480Z,0.53
2022-12-28T12:04:11.976Z,0.20
2022-12-28T12:07:31.025Z,0.50
2022-12-28T12:10:35.149Z,0.60
2022-12-28T12:13:44.881Z,0.50
2022-12-28T12:16:49.639Z,0.30
2022-12-28T12:19:38.906Z,0.50
2022-12-28T12:22:32.021Z,0.40
2022-12-28T12:25:24.931Z,0.40
2022-12-28T12:28:25.270Z,0.40
2022-12-28T12:31:16.985Z,0.47
2022-12-28T12:34:19.235Z,0.43
2022-12-28T12:37:33.045Z,0.40
2022-12-28T12:40:53.661Z,0.40
2022-12-28T12:43:51.248Z,0.40
2022-12-28T12:47:23.061Z,0.60
2022-12-28T12:50:35.391Z,0.57
2022-12-28T12:53:33.763Z,0.40
2022-12-28T12:56:33.555Z,0.43
2022-12-28T12:59:40.274Z,0.50
2022-12-28T13:03:02.149Z,0.53
2022-12-28T13:05:54.614Z,0.43
2022-12-28T13:08:48.487Z,0.40
2022-12-28T13:11:38.353Z,0.50
2022-12-28T13:14:26.218Z,0.50
2022-12-28T13:17:19.472Z,0.40
2022-12-28T13:20:12.094Z,0.50
2022-12-28T13:23:00.792Z,0.50
2022-12-28T13:25:51.016Z,0.50
2022-12-28T13:28:51.829Z,0.33
2022-12-28T13:31:41.508Z,0.40
2022-12-28T13:34:30.712Z,0.50
2022-12-28T13:37:18.520Z,0.37
2022-12-28T13:40:16.878Z,0.33
2022-12-28T13:43:30.076Z,0.40
2022-12-28T13:46:20.487Z,0.50
2022-12-28T13:49:08.584Z,0.53
2022-12-28T13:51:56.718Z,0.30
2022-12-28T13:54:49.139Z,0.50
2022-12-28T13:57:50.148Z,0.50
2022-12-28T14:00:40.338Z,0.43
2022-12-28T14:03:27.896Z,0.37
2022-12-28T14:06:17.036Z,0.20
2022-12-28T14:09:05.956Z,0.40
2022-12-28T14:11:53.594Z,0.60
2022-12-28T14:14:43.108Z,0.40
2022-12-28T14:17:31.394Z,0.57
2022-12-28T14:20:18.840Z,0.60
2022-12-28T14:23:23.559Z,0.60
2022-12-28T14:26:19.451Z,0.40
2022-12-28T14:29:13.521Z,0.70
2022-12-28T14:32:05.701Z,0.70
2022-12-28T14:34:59.380Z,0.60
2022-12-28T14:37:51.246Z,0.50
2022-12-28T14:40:38.428Z,0.47
2022-12-28T14:43:27.712Z,0.60
2022-12-28T14:46:19.962Z,0.40
2022-12-28T14:49:36.532Z,0.37
2022-12-28T14:52:37.834Z,0.67
2022-12-28T14:55:50.030Z,0.40
2022-12-28T14:58:50.449Z,0.50
2022-12-28T15:01:42.746Z,0.40
2022-12-28T15:04:38.761Z,0.63
2022-12-28T15:07:26.636Z,0.50
2022-12-28T15:10:13.854Z,0.60
2022-12-28T15:13:00.827Z,0.47
2022-12-28T15:15:55.843Z,0.50
2022-12-28T15:18:45.312Z,0.47
2022-12-28T15:21:34.109Z,0.40
2022-12-28T15:24:23.599Z,0.60
2022-12-28T15:27:12.243Z,0.40
2022-12-28T15:30:08.268Z,0.40
2022-12-28T15:32:59.529Z,0.30
2022-12-28T15:35:46.627Z,0.43
2022-12-28T15:38:35.885Z,0.57
2022-12-28T15:41:40.477Z,0.73
2022-12-28T15:44:27.701Z,0.40
2022-12-28T15:47:14.814Z,0.50
2022-12-28T15:50:03.525Z,0.40
2022-12-28T15:52:50.906Z,0.43
2022-12-28T15:55:39.592Z,0.60
2022-12-28T15:58:26.872Z,0.60
2022-12-28T16:01:14.127Z,0.67
2022-12-28T16:04:02.828Z,0.70
2022-12-28T16:06:49.775Z,1.07
2022-12-28T16:09:36.771Z,0.40
2022-12-28T16:12:25.969Z,0.63
2022-12-28T16:15:13.550Z,1.13
2022-12-28T16:18:01.013Z,1.27
2022-12-28T16:20:49.057Z,0.63
2022-12-28T16:23:38.124Z,0.90
2022-12-28T16:26:25.397Z,0.73
2022-12-28T16:29:13.883Z,0.77
2022-12-28T16:32:02.534Z,0.50
2022-12-28T16:34:49.723Z,0.50
2022-12-28T16:37:36.813Z,0.40
2022-12-28T16:40:24.120Z,0.40
2022-12-28T16:43:12.435Z,0.63
2022-12-28T16:46:08.036Z,0.60
2022-12-28T16:48:55.529Z,2.47
2022-12-28T16:51:45.382Z,1.03
2022-12-28T16:54:32.536Z,0.60
2022-12-28T16:57:19.854Z,0.90
2022-12-28T17:00:08.883Z,1.63
2022-12-28T17:02:57.441Z,5.30
2022-12-28T17:05:44.808Z,17.80
2022-12-28T17:08:35.155Z,11.67
2022-12-28T17:11:22.090Z,6.67
2022-12-28T17:14:11.265Z,10.17
2022-12-28T17:16:58.375Z,7.67
2022-12-28T17:19:47.497Z,5.60
2022-12-28T17:22:34.442Z,3.03
2022-12-28T17:25:21.767Z,1.50
2022-12-28T17:28:08.749Z,0.80
2022-12-28T17:31:05.834Z,1.10
2022-12-28T17:33:57.793Z,1.50
2022-12-28T17:36:46.194Z,1.03
2022-12-28T17:39:39.700Z,1.17
2022-12-28T17:42:27.310Z,1.40
2022-12-28T17:45:14.447Z,2.60
2022-12-28T17:48:01.925Z,10.10
2022-12-28T17:50:48.784Z,3.20
2022-12-28T17:53:37.957Z,2.80
2022-12-28T17:56:27.965Z,1.77
2022-12-28T17:59:17.152Z,1.07
2022-12-28T18:02:05.280Z,1.00
2022-12-28T18:04:52.436Z,1.27
2022-12-28T18:07:41.249Z,1.73
2022-12-28T18:10:29.833Z,1.90
2022-12-28T18:13:52.319Z,1.50
2022-12-28T18:16:42.457Z,2.03
2022-12-28T18:19:30.340Z,1.10
2022-12-28T18:22:17.298Z,0.93
2022-12-28T18:25:06.072Z,1.50
2022-12-28T18:28:17.480Z,1.60
2022-12-28T18:31:06.094Z,1.60
2022-12-28T18:33:53.506Z,0.70
2022-12-28T18:36:41.062Z,1.77
2022-12-28T18:39:28.335Z,0.70
2022-12-28T18:42:18.411Z,0.80
2022-12-28T18:45:08.964Z,0.70
2022-12-28T18:47:56.269Z,0.57
2022-12-28T18:50:52.393Z,1.00
2022-12-28T18:53:41.811Z,0.70
2022-12-28T18:56:28.833Z,0.70
2022-12-28T18:59:15.850Z,0.50
2022-12-28T19:02:07.384Z,0.73
2022-12-28T19:04:56.269Z,0.70
2022-12-28T19:07:49.166Z,0.90
2022-12-28T19:10:36.956Z,0.90
2022-12-28T19:13:24.137Z,0.50
2022-12-28T19:16:15.907Z,0.73
2022-12-28T19:19:04.674Z,1.00
2022-12-28T19:21:58.443Z,1.40
2022-12-28T19:24:45.865Z,0.60
2022-12-28T19:27:32.969Z,0.63
2022-12-28T19:30:19.964Z,1.07
2022-12-28T19:33:06.941Z,0.70
2022-12-28T19:35:55.290Z,0.87
2022-12-28T19:38:42.568Z,0.70
2022-12-28T19:41:29.551Z,0.83
2022-12-28T19:44:20.274Z,0.70
2022-12-28T19:47:07.639Z,1.10
2022-12-28T19:49:54.739Z,1.00
2022-12-28T19:52:43.307Z,0.90
2022-12-28T19:55:31.130Z,1.00
2022-12-28T19:58:20.669Z,0.50
2022-12-28T20:01:08.966Z,0.77
2022-12-28T20:03:56.637Z,0.83
2022-12-28T20:06:45.322Z,0.70
2022-12-28T20:09:34.539Z,0.70
2022-12-28T20:12:22.542Z,1.00
2022-12-28T20:15:10.407Z,0.80
2022-12-28T20:17:57.353Z,0.60
2022-12-28T20:21:17.298Z,0.83
2022-12-28T20:23:52.474Z,0.83
2022-12-28T20:26:41.180Z,0.90
2022-12-28T20:29:28.480Z,1.00
2022-12-28T20:32:15.463Z,1.10
2022-12-28T20:35:02.696Z,0.70
2022-12-28T20:37:49.820Z,0.80
2022-12-28T20:40:37.379Z,0.90
2022-12-28T20:43:25.064Z,1.00
2022-12-28T20:46:12.942Z,0.80
2022-12-28T20:49:00.446Z,0.70
2022-12-28T20:51:47.957Z,0.83
2022-12-28T20:54:35.111Z,0.90
2022-12-28T20:57:22.518Z,0.83
2022-12-28T21:00:12.766Z,0.70
2022-12-28T21:02:59.759Z,0.80
2022-12-28T21:05:46.933Z,0.80
2022-12-28T21:08:34.959Z,0.77
2022-12-28T21:11:22.402Z,0.73
2022-12-28T21:14:09.513Z,1.10
2022-12-28T21:16:58.404Z,1.00
2022-12-28T21:19:45.763Z,0.87
2022-12-28T21:22:32.600Z,0.57
2022-12-28T21:25:19.982Z,0.80
2022-12-28T21:28:07.097Z,0.90
2022-12-28T21:30:58.060Z,1.43
2022-12-28T21:33:46.874Z,0.77
2022-12-28T21:36:33.933Z,1.10
2022-12-28T21:39:20.844Z,1.00
2022-12-28T21:42:08.359Z,0.70
2022-12-28T21:44:55.300Z,0.90
2022-12-28T21:47:42.736Z,0.77
2022-12-28T21:50:31.577Z,0.90
2022-12-28T21:53:18.684Z,0.80
2022-12-28T21:56:06.631Z,0.90
2022-12-28T21:58:53.997Z,0.90
2022-12-28T22:01:59.196Z,0.87
2022-12-28T22:05:15.739Z,1.10
2022-12-28T22:08:18.080Z,0.90
2022-12-28T22:11:22.220Z,0.80
2022-12-28T22:14:09.413Z,0.83
2022-12-28T22:16:57.038Z,0.90
2022-12-28T22:19:44.157Z,1.00
2022-12-28T22:22:31.545Z,0.70
2022-12-28T22:25:20.385Z,1.13
2022-12-28T22:28:08.899Z,1.10
2022-12-28T22:30:57.352Z,1.00
2022-12-28T22:33:44.481Z,1.20
2022-12-28T22:36:31.457Z,1.00
2022-12-28T22:39:18.836Z,0.80
2022-12-28T22:42:08.658Z,0.97
2022-12-28T22:44:55.872Z,0.97
2022-12-28T22:47:43.566Z,1.13
2022-12-28T22:50:30.740Z,0.70
2022-12-28T22:53:18.157Z,0.77
2022-12-28T22:56:07.801Z,1.03
2022-12-28T22:59:00.476Z,0.77
2022-12-28T23:01:51.259Z,1.10
2022-12-28T23:04:38.427Z,1.00
2022-12-28T23:07:25.848Z,0.90
2022-12-28T23:10:12.793Z,0.93
2022-12-28T23:13:00.189Z,1.00
2022-12-28T23:15:55.473Z,0.80
2022-12-28T23:18:59.761Z,0.70
2022-12-28T23:22:04.513Z,0.80
2022-12-28T23:25:09.101Z,1.07
2022-12-28T23:27:56.692Z,1.10
2022-12-28T23:30:46.310Z,1.00
2022-12-28T23:33:36.719Z,0.90
2022-12-28T23:36:23.863Z,0.70
2022-12-28T23:39:11.134Z,0.80
2022-12-28T23:41:58.576Z,0.90
2022-12-28T23:44:49.781Z,0.70
2022-12-28T23:47:37.652Z,0.90
2022-12-28T23:50:26.087Z,0.53
2022-12-28T23:53:13.233Z,0.70
2022-12-28T23:56:00.344Z,0.90
2022-12-28T23:58:50.203Z,0.80
